sensor_id;sensor_type;location;lat;lon;timestamp;P1;durP1;ratioP1;P2;durP2;ratioP2
42770;SDS011;28426;42.872;25.314;2023-02-13T00:01:21;73.95;;;40.28;;
42770;SDS011;28426;42.872;25.314;2023-02-13T00:03:51;68.05;;;36.10;;
42770;SDS011;28426;42.872;25.314;2023-02-13T00:06:22;61.13;;;33.25;;
42770;SDS011;28426;42.872;25.314;2023-02-13T00:08:53;66.82;;;35.40;;
42770;SDS011;28426;42.872;25.314;2023-02-13T00:11:23;63.50;;;34.55;;
42770;SDS011;28426;42.872;25.314;2023-02-13T00:13:54;76.68;;;37.53;;
42770;SDS011;28426;42.872;25.314;2023-02-13T00:16:27;75.95;;;39.17;;
42770;SDS011;28426;42.872;25.314;2023-02-13T00:18:57;68.00;;;37.35;;
42770;SDS011;28426;42.872;25.314;2023-02-13T00:21:28;68.07;;;36.85;;
42770;SDS011;28426;42.872;25.314;2023-02-13T00:23:58;68.88;;;37.17;;
42770;SDS011;28426;42.872;25.314;2023-02-13T00:26:29;71.50;;;38.58;;
42770;SDS011;28426;42.872;25.314;2023-02-13T00:28:59;62.05;;;34.05;;
42770;SDS011;28426;42.872;25.314;2023-02-13T00:31:33;66.60;;;35.90;;
42770;SDS011;28426;42.872;25.314;2023-02-13T00:34:03;74.82;;;37.95;;
42770;SDS011;28426;42.872;25.314;2023-02-13T00:36:34;75.13;;;38.60;;
42770;SDS011;28426;42.872;25.314;2023-02-13T00:39:04;68.55;;;35.00;;
42770;SDS011;28426;42.872;25.314;2023-02-13T00:41:37;70.78;;;37.25;;
42770;SDS011;28426;42.872;25.314;2023-02-13T00:44:08;65.53;;;36.25;;
42770;SDS011;28426;42.872;25.314;2023-02-13T00:46:41;65.80;;;35.95;;
42770;SDS011;28426;42.872;25.314;2023-02-13T00:49:12;70.60;;;37.58;;
42770;SDS011;28426;42.872;25.314;2023-02-13T00:51:43;77.70;;;39.50;;
42770;SDS011;28426;42.872;25.314;2023-02-13T00:54:13;81.20;;;41.75;;
42770;SDS011;28426;42.872;25.314;2023-02-13T00:56:44;74.22;;;38.45;;
42770;SDS011;28426;42.872;25.314;2023-02-13T00:59:14;70.38;;;37.75;;
42770;SDS011;28426;42.872;25.314;2023-02-13T01:01:48;69.40;;;37.45;;
42770;SDS011;28426;42.872;25.314;2023-02-13T01:04:19;68.85;;;36.25;;
42770;SDS011;28426;42.872;25.314;2023-02-13T01:06:50;66.03;;;35.58;;
42770;SDS011;28426;42.872;25.314;2023-02-13T01:09:20;64.18;;;34.33;;
42770;SDS011;28426;42.872;25.314;2023-02-13T01:11:51;67.50;;;34.50;;
42770;SDS011;28426;42.872;25.314;2023-02-13T01:14:22;68.63;;;35.97;;
42770;SDS011;28426;42.872;25.314;2023-02-13T01:16:55;66.68;;;35.53;;
42770;SDS011;28426;42.872;25.314;2023-02-13T01:19:25;62.13;;;33.40;;
42770;SDS011;28426;42.872;25.314;2023-02-13T01:21:56;62.28;;;32.83;;
42770;SDS011;28426;42.872;25.314;2023-02-13T01:24:27;64.65;;;33.25;;
42770;SDS011;28426;42.872;25.314;2023-02-13T01:26:59;63.58;;;31.42;;
42770;SDS011;28426;42.872;25.314;2023-02-13T01:29:30;63.60;;;31.92;;
42770;SDS011;28426;42.872;25.314;2023-02-13T01:32:03;59.47;;;32.22;;
42770;SDS011;28426;42.872;25.314;2023-02-13T01:34:34;59.58;;;31.85;;
42770;SDS011;28426;42.872;25.314;2023-02-13T01:37:04;57.60;;;30.98;;
42770;SDS011;28426;42.872;25.314;2023-02-13T01:39:35;61.05;;;32.60;;
42770;SDS011;28426;42.872;25.314;2023-02-13T01:42:09;64.50;;;32.35;;
42770;SDS011;28426;42.872;25.314;2023-02-13T01:44:45;64.38;;;32.22;;
42770;SDS011;28426;42.872;25.314;2023-02-13T01:47:21;58.78;;;29.42;;
42770;SDS011;28426;42.872;25.314;2023-02-13T01:49:59;56.63;;;30.30;;
42770;SDS011;28426;42.872;25.314;2023-02-13T01:52:36;60.47;;;31.63;;
42770;SDS011;28426;42.872;25.314;2023-02-13T01:55:11;62.20;;;34.55;;
42770;SDS011;28426;42.872;25.314;2023-02-13T01:57:45;66.75;;;34.03;;
42770;SDS011;28426;42.872;25.314;2023-02-13T02:00:21;63.70;;;32.03;;
42770;SDS011;28426;42.872;25.314;2023-02-13T02:02:57;68.32;;;34.25;;
42770;SDS011;28426;42.872;25.314;2023-02-13T02:05:34;69.50;;;35.72;;
42770;SDS011;28426;42.872;25.314;2023-02-13T02:08:08;64.40;;;33.45;;
42770;SDS011;28426;42.872;25.314;2023-02-13T02:10:41;57.77;;;30.20;;
42770;SDS011;28426;42.872;25.314;2023-02-13T02:13:13;66.80;;;35.15;;
42770;SDS011;28426;42.872;25.314;2023-02-13T02:15:46;59.33;;;31.67;;
42770;SDS011;28426;42.872;25.314;2023-02-13T02:18:21;54.78;;;30.83;;
42770;SDS011;28426;42.872;25.314;2023-02-13T02:27:16;60.75;;;31.48;;
42770;SDS011;28426;42.872;25.314;2023-02-13T02:33:10;59.80;;;29.02;;
42770;SDS011;28426;42.872;25.314;2023-02-13T02:35:56;59.78;;;30.92;;
42770;SDS011;28426;42.872;25.314;2023-02-13T02:38:39;57.20;;;29.75;;
42770;SDS011;28426;42.872;25.314;2023-02-13T02:41:28;55.13;;;29.00;;
42770;SDS011;28426;42.872;25.314;2023-02-13T02:44:30;60.10;;;30.30;;
42770;SDS011;28426;42.872;25.314;2023-02-13T02:47:10;60.28;;;31.88;;
42770;SDS011;28426;42.872;25.314;2023-02-13T02:50:10;54.72;;;27.75;;
42770;SDS011;28426;42.872;25.314;2023-02-13T02:52:55;56.25;;;29.73;;
42770;SDS011;28426;42.872;25.314;2023-02-13T02:55:38;57.60;;;30.25;;
42770;SDS011;28426;42.872;25.314;2023-02-13T02:58:17;60.90;;;29.75;;
42770;SDS011;28426;42.872;25.314;2023-02-13T03:01:05;57.38;;;27.88;;
42770;SDS011;28426;42.872;25.314;2023-02-13T03:03:53;53.75;;;29.23;;
42770;SDS011;28426;42.872;25.314;2023-02-13T03:06:42;61.47;;;27.23;;
42770;SDS011;28426;42.872;25.314;2023-02-13T03:09:22;62.90;;;30.02;;
42770;SDS011;28426;42.872;25.314;2023-02-13T03:12:10;71.45;;;33.72;;
42770;SDS011;28426;42.872;25.314;2023-02-13T03:14:55;51.35;;;24.75;;
42770;SDS011;28426;42.872;25.314;2023-02-13T03:17:25;55.05;;;28.45;;
42770;SDS011;28426;42.872;25.314;2023-02-13T03:20:11;54.65;;;27.67;;
42770;SDS011;28426;42.872;25.314;2023-02-13T03:26:03;58.72;;;30.55;;
42770;SDS011;28426;42.872;25.314;2023-02-13T03:28:48;60.40;;;30.35;;
42770;SDS011;28426;42.872;25.314;2023-02-13T03:31:41;62.92;;;31.95;;
42770;SDS011;28426;42.872;25.314;2023-02-13T03:34:20;60.90;;;30.30;;
42770;SDS011;28426;42.872;25.314;2023-02-13T03:37:13;61.10;;;31.10;;
42770;SDS011;28426;42.872;25.314;2023-02-13T03:40:04;62.08;;;31.23;;
42770;SDS011;28426;42.872;25.314;2023-02-13T03:42:39;54.55;;;29.73;;
42770;SDS011;28426;42.872;25.314;2023-02-13T03:45:15;60.08;;;30.23;;
42770;SDS011;28426;42.872;25.314;2023-02-13T03:48:00;61.80;;;29.85;;
42770;SDS011;28426;42.872;25.314;2023-02-13T03:50:35;63.95;;;32.30;;
42770;SDS011;28426;42.872;25.314;2023-02-13T03:53:09;65.07;;;32.45;;
42770;SDS011;28426;42.872;25.314;2023-02-13T03:55:47;61.30;;;29.47;;
42770;SDS011;28426;42.872;25.314;2023-02-13T03:58:31;61.58;;;31.20;;
42770;SDS011;28426;42.872;25.314;2023-02-13T04:01:20;65.55;;;32.03;;
42770;SDS011;28426;42.872;25.314;2023-02-13T04:03:56;63.03;;;33.17;;
42770;SDS011;28426;42.872;25.314;2023-02-13T04:06:35;62.80;;;31.58;;
42770;SDS011;28426;42.872;25.314;2023-02-13T04:09:12;65.53;;;33.17;;
42770;SDS011;28426;42.872;25.314;2023-02-13T04:11:47;68.68;;;35.30;;
42770;SDS011;28426;42.872;25.314;2023-02-13T04:14:23;59.47;;;30.35;;
42770;SDS011;28426;42.872;25.314;2023-02-13T04:16:58;67.28;;;33.60;;
42770;SDS011;28426;42.872;25.314;2023-02-13T04:19:33;60.85;;;31.17;;
42770;SDS011;28426;42.872;25.314;2023-02-13T04:22:04;60.38;;;30.95;;
42770;SDS011;28426;42.872;25.314;2023-02-13T04:24:35;69.65;;;35.70;;
42770;SDS011;28426;42.872;25.314;2023-02-13T04:27:08;68.75;;;33.50;;
42770;SDS011;28426;42.872;25.314;2023-02-13T04:29:42;68.88;;;33.78;;
42770;SDS011;28426;42.872;25.314;2023-02-13T04:32:13;65.45;;;33.95;;
42770;SDS011;28426;42.872;25.314;2023-02-13T04:34:43;58.15;;;30.17;;
42770;SDS011;28426;42.872;25.314;2023-02-13T04:37:14;61.92;;;32.90;;
42770;SDS011;28426;42.872;25.314;2023-02-13T04:39:44;67.38;;;34.20;;
42770;SDS011;28426;42.872;25.314;2023-02-13T04:42:18;68.43;;;34.35;;
42770;SDS011;28426;42.872;25.314;2023-02-13T04:44:48;60.22;;;31.38;;
42770;SDS011;28426;42.872;25.314;2023-02-13T04:47:19;59.42;;;31.73;;
42770;SDS011;28426;42.872;25.314;2023-02-13T04:49:49;57.92;;;31.13;;
42770;SDS011;28426;42.872;25.314;2023-02-13T04:52:20;64.00;;;32.42;;
42770;SDS011;28426;42.872;25.314;2023-02-13T04:54:50;65.72;;;31.08;;
42770;SDS011;28426;42.872;25.314;2023-02-13T04:57:24;68.03;;;33.83;;
42770;SDS011;28426;42.872;25.314;2023-02-13T04:59:54;66.75;;;33.17;;
42770;SDS011;28426;42.872;25.314;2023-02-13T05:02:25;71.97;;;35.08;;
42770;SDS011;28426;42.872;25.314;2023-02-13T05:04:56;85.57;;;41.20;;
42770;SDS011;28426;42.872;25.314;2023-02-13T05:07:26;69.55;;;35.53;;
42770;SDS011;28426;42.872;25.314;2023-02-13T05:09:57;69.35;;;35.70;;
42770;SDS011;28426;42.872;25.314;2023-02-13T05:12:30;73.93;;;35.72;;
42770;SDS011;28426;42.872;25.314;2023-02-13T05:15:01;67.28;;;35.63;;
42770;SDS011;28426;42.872;25.314;2023-02-13T05:17:32;67.18;;;35.28;;
42770;SDS011;28426;42.872;25.314;2023-02-13T05:20:03;66.38;;;31.45;;
42770;SDS011;28426;42.872;25.314;2023-02-13T05:22:34;65.38;;;33.80;;
42770;SDS011;28426;42.872;25.314;2023-02-13T05:25:17;61.22;;;31.13;;
42770;SDS011;28426;42.872;25.314;2023-02-13T05:27:50;65.20;;;31.80;;
42770;SDS011;28426;42.872;25.314;2023-02-13T05:30:21;63.50;;;31.70;;
42770;SDS011;28426;42.872;25.314;2023-02-13T05:32:51;65.97;;;32.22;;
42770;SDS011;28426;42.872;25.314;2023-02-13T05:35:22;75.60;;;34.70;;
42770;SDS011;28426;42.872;25.314;2023-02-13T05:37:53;72.25;;;36.92;;
42770;SDS011;28426;42.872;25.314;2023-02-13T05:40:24;67.75;;;34.58;;
42770;SDS011;28426;42.872;25.314;2023-02-13T05:42:57;66.47;;;33.05;;
42770;SDS011;28426;42.872;25.314;2023-02-13T05:45:27;65.03;;;32.20;;
42770;SDS011;28426;42.872;25.314;2023-02-13T05:47:58;62.15;;;31.40;;
42770;SDS011;28426;42.872;25.314;2023-02-13T05:50:28;63.90;;;33.08;;
42770;SDS011;28426;42.872;25.314;2023-02-13T05:53:00;63.92;;;31.50;;
42770;SDS011;28426;42.872;25.314;2023-02-13T05:55:30;61.97;;;31.00;;
42770;SDS011;28426;42.872;25.314;2023-02-13T05:58:03;63.38;;;31.95;;
42770;SDS011;28426;42.872;25.314;2023-02-13T06:00:35;62.38;;;30.92;;
42770;SDS011;28426;42.872;25.314;2023-02-13T06:03:05;65.80;;;32.28;;
42770;SDS011;28426;42.872;25.314;2023-02-13T06:05:36;63.17;;;30.98;;
42770;SDS011;28426;42.872;25.314;2023-02-13T06:08:07;60.08;;;31.48;;
42770;SDS011;28426;42.872;25.314;2023-02-13T06:10:37;61.67;;;29.65;;
42770;SDS011;28426;42.872;25.314;2023-02-13T06:13:13;57.67;;;30.75;;
42770;SDS011;28426;42.872;25.314;2023-02-13T06:15:44;52.67;;;28.83;;
42770;SDS011;28426;42.872;25.314;2023-02-13T06:18:16;59.38;;;31.73;;
42770;SDS011;28426;42.872;25.314;2023-02-13T06:20:47;55.13;;;29.42;;
42770;SDS011;28426;42.872;25.314;2023-02-13T06:23:18;55.15;;;29.77;;
42770;SDS011;28426;42.872;25.314;2023-02-13T06:25:48;53.72;;;28.08;;
42770;SDS011;28426;42.872;25.314;2023-02-13T06:28:21;56.58;;;29.67;;
42770;SDS011;28426;42.872;25.314;2023-02-13T06:30:52;55.65;;;30.17;;
42770;SDS011;28426;42.872;25.314;2023-02-13T06:33:23;53.95;;;28.88;;
42770;SDS011;28426;42.872;25.314;2023-02-13T06:35:54;54.75;;;30.20;;
42770;SDS011;28426;42.872;25.314;2023-02-13T06:38:25;59.03;;;31.33;;
42770;SDS011;28426;42.872;25.314;2023-02-13T06:40:57;58.17;;;32.00;;
42770;SDS011;28426;42.872;25.314;2023-02-13T06:43:32;59.75;;;31.73;;
42770;SDS011;28426;42.872;25.314;2023-02-13T06:46:06;61.33;;;33.22;;
42770;SDS011;28426;42.872;25.314;2023-02-13T06:48:37;55.80;;;31.27;;
42770;SDS011;28426;42.872;25.314;2023-02-13T06:51:08;63.10;;;34.08;;
42770;SDS011;28426;42.872;25.314;2023-02-13T06:53:38;61.28;;;34.70;;
42770;SDS011;28426;42.872;25.314;2023-02-13T06:56:09;61.50;;;34.40;;
42770;SDS011;28426;42.872;25.314;2023-02-13T06:58:42;61.47;;;34.90;;
42770;SDS011;28426;42.872;25.314;2023-02-13T07:01:13;67.60;;;37.45;;
42770;SDS011;28426;42.872;25.314;2023-02-13T07:03:43;65.20;;;36.35;;
42770;SDS011;28426;42.872;25.314;2023-02-13T07:06:17;56.30;;;32.97;;
42770;SDS011;28426;42.872;25.314;2023-02-13T07:08:49;60.47;;;34.72;;
42770;SDS011;28426;42.872;25.314;2023-02-13T07:11:22;56.65;;;34.13;;
42770;SDS011;28426;42.872;25.314;2023-02-13T07:13:56;61.72;;;33.25;;
42770;SDS011;28426;42.872;25.314;2023-02-13T07:16:27;54.33;;;32.08;;
42770;SDS011;28426;42.872;25.314;2023-02-13T07:18:57;54.25;;;33.20;;
42770;SDS011;28426;42.872;25.314;2023-02-13T07:21:28;52.38;;;32.83;;
42770;SDS011;28426;42.872;25.314;2023-02-13T07:23:58;52.10;;;31.40;;
42770;SDS011;28426;42.872;25.314;2023-02-13T07:26:30;50.13;;;30.35;;
42770;SDS011;28426;42.872;25.314;2023-02-13T07:29:03;55.95;;;35.97;;
42770;SDS011;28426;42.872;25.314;2023-02-13T07:31:38;53.40;;;34.10;;
42770;SDS011;28426;42.872;25.314;2023-02-13T07:34:08;47.92;;;31.27;;
42770;SDS011;28426;42.872;25.314;2023-02-13T07:36:39;45.97;;;30.17;;
42770;SDS011;28426;42.872;25.314;2023-02-13T07:39:09;44.72;;;28.20;;
42770;SDS011;28426;42.872;25.314;2023-02-13T07:41:40;40.15;;;26.17;;
42770;SDS011;28426;42.872;25.314;2023-02-13T07:44:13;42.25;;;29.02;;
42770;SDS011;28426;42.872;25.314;2023-02-13T07:46:44;41.22;;;26.77;;
42770;SDS011;28426;42.872;25.314;2023-02-13T07:49:14;41.63;;;26.65;;
42770;SDS011;28426;42.872;25.314;2023-02-13T07:51:45;39.88;;;26.17;;
42770;SDS011;28426;42.872;25.314;2023-02-13T07:54:15;41.55;;;28.17;;
42770;SDS011;28426;42.872;25.314;2023-02-13T07:56:46;54.17;;;33.50;;
42770;SDS011;28426;42.872;25.314;2023-02-13T07:59:19;48.42;;;28.85;;
42770;SDS011;28426;42.872;25.314;2023-02-13T08:01:50;42.42;;;27.67;;
42770;SDS011;28426;42.872;25.314;2023-02-13T08:04:20;44.15;;;29.33;;
42770;SDS011;28426;42.872;25.314;2023-02-13T08:06:52;45.17;;;30.35;;
42770;SDS011;28426;42.872;25.314;2023-02-13T08:09:22;44.67;;;30.80;;
42770;SDS011;28426;42.872;25.314;2023-02-13T08:12:07;39.80;;;27.70;;
42770;SDS011;28426;42.872;25.314;2023-02-13T08:14:41;36.85;;;24.48;;
42770;SDS011;28426;42.872;25.314;2023-02-13T08:17:11;41.47;;;26.75;;
42770;SDS011;28426;42.872;25.314;2023-02-13T08:19:42;31.92;;;21.65;;
42770;SDS011;28426;42.872;25.314;2023-02-13T08:22:13;30.55;;;21.63;;
42770;SDS011;28426;42.872;25.314;2023-02-13T08:24:43;33.42;;;21.10;;
42770;SDS011;28426;42.872;25.314;2023-02-13T08:27:14;30.13;;;20.77;;
42770;SDS011;28426;42.872;25.314;2023-02-13T08:29:47;29.25;;;19.38;;
42770;SDS011;28426;42.872;25.314;2023-02-13T08:32:18;34.35;;;23.25;;
42770;SDS011;28426;42.872;25.314;2023-02-13T08:34:48;34.60;;;23.70;;
42770;SDS011;28426;42.872;25.314;2023-02-13T08:37:19;34.30;;;23.35;;
42770;SDS011;28426;42.872;25.314;2023-02-13T08:39:50;34.80;;;23.42;;
42770;SDS011;28426;42.872;25.314;2023-02-13T08:42:20;33.25;;;22.63;;
42770;SDS011;28426;42.872;25.314;2023-02-13T08:44:53;32.88;;;23.05;;
42770;SDS011;28426;42.872;25.314;2023-02-13T08:47:25;29.15;;;19.77;;
42770;SDS011;28426;42.872;25.314;2023-02-13T08:49:55;28.25;;;18.00;;
42770;SDS011;28426;42.872;25.314;2023-02-13T08:52:26;41.45;;;25.85;;
42770;SDS011;28426;42.872;25.314;2023-02-13T08:54:57;63.85;;;39.50;;
42770;SDS011;28426;42.872;25.314;2023-02-13T08:57:29;31.98;;;21.48;;
42770;SDS011;28426;42.872;25.314;2023-02-13T09:00:03;38.90;;;24.10;;
42770;SDS011;28426;42.872;25.314;2023-02-13T09:02:35;31.58;;;19.92;;
42770;SDS011;28426;42.872;25.314;2023-02-13T09:05:05;29.83;;;19.25;;
42770;SDS011;28426;42.872;25.314;2023-02-13T09:07:36;28.85;;;18.83;;
42770;SDS011;28426;42.872;25.314;2023-02-13T09:10:07;27.13;;;16.58;;
42770;SDS011;28426;42.872;25.314;2023-02-13T09:12:38;30.38;;;16.15;;
42770;SDS011;28426;42.872;25.314;2023-02-13T09:15:11;26.63;;;17.05;;
42770;SDS011;28426;42.872;25.314;2023-02-13T09:17:42;25.60;;;14.50;;
42770;SDS011;28426;42.872;25.314;2023-02-13T09:20:13;26.58;;;17.17;;
42770;SDS011;28426;42.872;25.314;2023-02-13T09:22:44;32.90;;;18.15;;
42770;SDS011;28426;42.872;25.314;2023-02-13T09:25:14;24.35;;;15.43;;
42770;SDS011;28426;42.872;25.314;2023-02-13T09:27:46;35.72;;;16.67;;
42770;SDS011;28426;42.872;25.314;2023-02-13T09:30:19;32.15;;;16.85;;
42770;SDS011;28426;42.872;25.314;2023-02-13T09:32:52;27.30;;;16.15;;
42770;SDS011;28426;42.872;25.314;2023-02-13T09:35:23;28.33;;;16.17;;
42770;SDS011;28426;42.872;25.314;2023-02-13T09:37:55;29.58;;;16.67;;
42770;SDS011;28426;42.872;25.314;2023-02-13T09:40:26;26.30;;;15.55;;
42770;SDS011;28426;42.872;25.314;2023-02-13T09:43:03;31.90;;;16.13;;
42770;SDS011;28426;42.872;25.314;2023-02-13T09:45:45;30.83;;;15.50;;
42770;SDS011;28426;42.872;25.314;2023-02-13T09:48:19;23.77;;;14.95;;
42770;SDS011;28426;42.872;25.314;2023-02-13T09:50:58;23.17;;;14.88;;
42770;SDS011;28426;42.872;25.314;2023-02-13T09:53:29;22.50;;;14.15;;
42770;SDS011;28426;42.872;25.314;2023-02-13T09:56:04;31.05;;;16.92;;
42770;SDS011;28426;42.872;25.314;2023-02-13T09:58:41;26.52;;;16.10;;
42770;SDS011;28426;42.872;25.314;2023-02-13T10:01:25;35.38;;;16.08;;
42770;SDS011;28426;42.872;25.314;2023-02-13T10:04:06;29.98;;;16.08;;
42770;SDS011;28426;42.872;25.314;2023-02-13T10:06:59;29.52;;;14.88;;
42770;SDS011;28426;42.872;25.314;2023-02-13T10:09:38;25.60;;;16.00;;
42770;SDS011;28426;42.872;25.314;2023-02-13T10:12:23;28.17;;;14.88;;
42770;SDS011;28426;42.872;25.314;2023-02-13T10:15:06;23.80;;;13.93;;
42770;SDS011;28426;42.872;25.314;2023-02-13T10:17:49;23.98;;;13.52;;
42770;SDS011;28426;42.872;25.314;2023-02-13T10:20:27;24.30;;;14.70;;
42770;SDS011;28426;42.872;25.314;2023-02-13T10:23:05;26.20;;;15.20;;
42770;SDS011;28426;42.872;25.314;2023-02-13T10:25:47;29.40;;;17.75;;
42770;SDS011;28426;42.872;25.314;2023-02-13T10:28:33;26.15;;;15.45;;
42770;SDS011;28426;42.872;25.314;2023-02-13T10:31:09;20.30;;;13.82;;
42770;SDS011;28426;42.872;25.314;2023-02-13T10:33:46;35.22;;;15.63;;
42770;SDS011;28426;42.872;25.314;2023-02-13T10:36:20;22.00;;;12.90;;
42770;SDS011;28426;42.872;25.314;2023-02-13T10:38:55;22.80;;;14.10;;
42770;SDS011;28426;42.872;25.314;2023-02-13T10:41:33;31.47;;;14.60;;
42770;SDS011;28426;42.872;25.314;2023-02-13T10:44:19;26.73;;;15.93;;
42770;SDS011;28426;42.872;25.314;2023-02-13T10:47:00;27.23;;;14.60;;
42770;SDS011;28426;42.872;25.314;2023-02-13T10:49:48;20.50;;;14.02;;
42770;SDS011;28426;42.872;25.314;2023-02-13T10:52:36;27.60;;;13.63;;
42770;SDS011;28426;42.872;25.314;2023-02-13T10:55:17;20.55;;;12.55;;
42770;SDS011;28426;42.872;25.314;2023-02-13T10:58:08;22.67;;;12.80;;
42770;SDS011;28426;42.872;25.314;2023-02-13T11:00:45;24.98;;;14.00;;
42770;SDS011;28426;42.872;25.314;2023-02-13T11:03:20;22.05;;;13.15;;
42770;SDS011;28426;42.872;25.314;2023-02-13T11:05:54;19.90;;;13.02;;
42770;SDS011;28426;42.872;25.314;2023-02-13T11:08:31;19.60;;;12.55;;
42770;SDS011;28426;42.872;25.314;2023-02-13T11:11:03;21.13;;;13.02;;
42770;SDS011;28426;42.872;25.314;2023-02-13T11:14:01;17.27;;;10.65;;
42770;SDS011;28426;42.872;25.314;2023-02-13T11:16:48;25.40;;;11.88;;
42770;SDS011;28426;42.872;25.314;2023-02-13T11:19:28;21.05;;;12.82;;
42770;SDS011;28426;42.872;25.314;2023-02-13T11:22:04;21.92;;;12.55;;
42770;SDS011;28426;42.872;25.314;2023-02-13T11:24:40;22.30;;;11.68;;
42770;SDS011;28426;42.872;25.314;2023-02-13T11:27:22;39.92;;;13.90;;
42770;SDS011;28426;42.872;25.314;2023-02-13T11:29:56;31.05;;;13.15;;
42770;SDS011;28426;42.872;25.314;2023-02-13T11:32:30;25.48;;;14.05;;
42770;SDS011;28426;42.872;25.314;2023-02-13T11:35:16;29.42;;;13.65;;
42770;SDS011;28426;42.872;25.314;2023-02-13T11:38:14;20.65;;;12.30;;
42770;SDS011;28426;42.872;25.314;2023-02-13T11:40:51;19.95;;;12.95;;
42770;SDS011;28426;42.872;25.314;2023-02-13T11:43:33;22.88;;;12.00;;
42770;SDS011;28426;42.872;25.314;2023-02-13T11:46:06;19.33;;;12.15;;
42770;SDS011;28426;42.872;25.314;2023-02-13T11:48:43;21.25;;;12.10;;
42770;SDS011;28426;42.872;25.314;2023-02-13T11:51:34;22.13;;;12.40;;
42770;SDS011;28426;42.872;25.314;2023-02-13T11:54:28;19.55;;;11.30;;
42770;SDS011;28426;42.872;25.314;2023-02-13T11:57:02;22.30;;;12.38;;
42770;SDS011;28426;42.872;25.314;2023-02-13T11:59:47;24.35;;;14.32;;
42770;SDS011;28426;42.872;25.314;2023-02-13T12:02:20;27.35;;;14.48;;
42770;SDS011;28426;42.872;25.314;2023-02-13T12:04:52;28.25;;;13.93;;
42770;SDS011;28426;42.872;25.314;2023-02-13T12:07:24;18.77;;;11.27;;
42770;SDS011;28426;42.872;25.314;2023-02-13T12:10:02;27.92;;;14.15;;
42770;SDS011;28426;42.872;25.314;2023-02-13T12:12:44;24.77;;;13.73;;
42770;SDS011;28426;42.872;25.314;2023-02-13T12:15:22;20.52;;;12.75;;
42770;SDS011;28426;42.872;25.314;2023-02-13T12:18:05;20.85;;;12.15;;
42770;SDS011;28426;42.872;25.314;2023-02-13T12:20:48;16.52;;;10.98;;
42770;SDS011;28426;42.872;25.314;2023-02-13T12:23:30;19.15;;;11.43;;
42770;SDS011;28426;42.872;25.314;2023-02-13T12:26:13;18.40;;;11.05;;
42770;SDS011;28426;42.872;25.314;2023-02-13T12:28:57;29.58;;;12.93;;
42770;SDS011;28426;42.872;25.314;2023-02-13T12:31:39;28.23;;;12.15;;
42770;SDS011;28426;42.872;25.314;2023-02-13T12:34:30;18.08;;;11.65;;
42770;SDS011;28426;42.872;25.314;2023-02-13T12:37:35;24.95;;;12.00;;
42770;SDS011;28426;42.872;25.314;2023-02-13T12:43:06;28.30;;;13.90;;
42770;SDS011;28426;42.872;25.314;2023-02-13T12:45:52;24.08;;;13.55;;
42770;SDS011;28426;42.872;25.314;2023-02-13T12:48:31;19.50;;;13.43;;
42770;SDS011;28426;42.872;25.314;2023-02-13T12:51:20;22.30;;;13.25;;
42770;SDS011;28426;42.872;25.314;2023-02-13T12:54:16;26.20;;;14.48;;
42770;SDS011;28426;42.872;25.314;2023-02-13T12:57:04;22.83;;;13.20;;
42770;SDS011;28426;42.872;25.314;2023-02-13T12:59:54;19.52;;;11.68;;
42770;SDS011;28426;42.872;25.314;2023-02-13T13:05:40;43.30;;;15.18;;
42770;SDS011;28426;42.872;25.314;2023-02-13T13:08:50;24.92;;;13.43;;
42770;SDS011;28426;42.872;25.314;2023-02-13T13:11:44;28.05;;;14.27;;
42770;SDS011;28426;42.872;25.314;2023-02-13T13:14:34;28.77;;;14.93;;
42770;SDS011;28426;42.872;25.314;2023-02-13T13:17:18;28.15;;;15.52;;
42770;SDS011;28426;42.872;25.314;2023-02-13T13:19:59;28.90;;;17.80;;
42770;SDS011;28426;42.872;25.314;2023-02-13T13:22:44;31.55;;;18.73;;
42770;SDS011;28426;42.872;25.314;2023-02-13T13:25:20;42.20;;;19.10;;
42770;SDS011;28426;42.872;25.314;2023-02-13T13:27:54;27.70;;;18.40;;
42770;SDS011;28426;42.872;25.314;2023-02-13T13:30:31;34.13;;;19.88;;
42770;SDS011;28426;42.872;25.314;2023-02-13T13:33:08;33.35;;;17.92;;
42770;SDS011;28426;42.872;25.314;2023-02-13T13:35:51;31.58;;;17.80;;
42770;SDS011;28426;42.872;25.314;2023-02-13T13:38:30;33.17;;;16.55;;
42770;SDS011;28426;42.872;25.314;2023-02-13T13:41:13;31.70;;;16.55;;
42770;SDS011;28426;42.872;25.314;2023-02-13T13:43:52;33.55;;;16.13;;
42770;SDS011;28426;42.872;25.314;2023-02-13T13:46:33;35.03;;;18.75;;
42770;SDS011;28426;42.872;25.314;2023-02-13T13:49:20;37.30;;;18.30;;
42770;SDS011;28426;42.872;25.314;2023-02-13T13:52:10;32.38;;;18.35;;
42770;SDS011;28426;42.872;25.314;2023-02-13T13:54:49;31.83;;;18.77;;
42770;SDS011;28426;42.872;25.314;2023-02-13T13:57:21;33.78;;;19.50;;
42770;SDS011;28426;42.872;25.314;2023-02-13T13:59:56;31.65;;;19.33;;
42770;SDS011;28426;42.872;25.314;2023-02-13T14:02:43;37.08;;;18.23;;
42770;SDS011;28426;42.872;25.314;2023-02-13T14:05:24;37.22;;;17.23;;
42770;SDS011;28426;42.872;25.314;2023-02-13T14:07:57;27.73;;;16.17;;
42770;SDS011;28426;42.872;25.314;2023-02-13T14:13:32;32.67;;;16.70;;
42770;SDS011;28426;42.872;25.314;2023-02-13T14:16:04;28.30;;;16.60;;
42770;SDS011;28426;42.872;25.314;2023-02-13T14:18:41;35.42;;;18.40;;
42770;SDS011;28426;42.872;25.314;2023-02-13T14:21:23;29.17;;;18.05;;
42770;SDS011;28426;42.872;25.314;2023-02-13T14:23:55;29.58;;;18.15;;
42770;SDS011;28426;42.872;25.314;2023-02-13T14:26:33;31.80;;;19.87;;
42770;SDS011;28426;42.872;25.314;2023-02-13T14:32:01;34.25;;;19.42;;
42770;SDS011;28426;42.872;25.314;2023-02-13T14:34:52;28.77;;;18.27;;
42770;SDS011;28426;42.872;25.314;2023-02-13T14:37:37;30.98;;;19.92;;
42770;SDS011;28426;42.872;25.314;2023-02-13T14:40:28;32.20;;;18.58;;
42770;SDS011;28426;42.872;25.314;2023-02-13T14:46:07;30.40;;;16.75;;
42770;SDS011;28426;42.872;25.314;2023-02-13T14:48:47;31.45;;;17.55;;
42770;SDS011;28426;42.872;25.314;2023-02-13T14:51:23;43.08;;;22.80;;
42770;SDS011;28426;42.872;25.314;2023-02-13T14:54:06;26.35;;;17.23;;
42770;SDS011;28426;42.872;25.314;2023-02-13T14:56:46;23.65;;;14.98;;
42770;SDS011;28426;42.872;25.314;2023-02-13T14:59:20;27.17;;;15.85;;
42770;SDS011;28426;42.872;25.314;2023-02-13T15:04:29;35.05;;;17.65;;
42770;SDS011;28426;42.872;25.314;2023-02-13T15:07:04;32.33;;;16.73;;
42770;SDS011;28426;42.872;25.314;2023-02-13T15:09:47;27.40;;;16.73;;
42770;SDS011;28426;42.872;25.314;2023-02-13T15:12:23;27.77;;;16.30;;
42770;SDS011;28426;42.872;25.314;2023-02-13T15:14:56;28.52;;;17.05;;
42770;SDS011;28426;42.872;25.314;2023-02-13T15:17:30;29.75;;;16.70;;
42770;SDS011;28426;42.872;25.314;2023-02-13T15:20:07;26.35;;;15.32;;
42770;SDS011;28426;42.872;25.314;2023-02-13T15:22:49;27.50;;;16.37;;
42770;SDS011;28426;42.872;25.314;2023-02-13T15:25:24;28.20;;;17.75;;
42770;SDS011;28426;42.872;25.314;2023-02-13T15:28:01;27.88;;;17.63;;
42770;SDS011;28426;42.872;25.314;2023-02-13T15:30:34;41.58;;;23.00;;